Time;durP1;ratioP1;P1;durP2;ratioP2;P2;SDS_P1;SDS_P2;PMS_P1;PMS_P2;Temp;Humidity;BMP_temperature;BMP_pressure;BME280_temperature;BME280_humidity;BME280_pressure;Samples;Min_cycle;Max_cycle;Signal;HPM_P1;HPM_P2
2022/06/24 00:00:48;;;;;;;36.20;7.85;;;;;;;21.51;100.00;97383.81;5003735;28;20267;-56
2022/06/24 00:03:18;;;;;;;31.63;7.82;;;;;;;21.47;100.00;97393.06;5005020;28;20132;-57
2022/06/24 00:05:46;;;;;;;37.03;7.95;;;;;;;21.09;100.00;97396.66;5006109;28;20041;-57
2022/06/24 00:08:12;;;;;;;32.65;7.82;;;;;;;21.20;100.00;97393.84;5007337;28;20025;-56
2022/06/24 00:10:37;;;;;;;36.22;8.35;;;;;;;20.95;100.00;97390.84;5004276;28;20475;-56
2022/06/24 00:13:05;;;;;;;37.53;8.20;;;;;;;21.07;100.00;97388.03;5005825;28;20053;-57
2022/06/24 00:15:33;;;;;;;32.80;7.90;;;;;;;21.11;100.00;97395.53;5005460;28;20192;-56
2022/06/24 00:18:14;;;;;;;37.03;8.38;;;;;;;20.95;100.00;97393.50;5006093;28;20317;-56
2022/06/24 00:20:48;;;;;;;33.25;8.02;;;;;;;20.97;100.00;97391.53;5006509;28;20041;-56
2022/06/24 00:23:18;;;;;;;36.03;8.00;;;;;;;21.15;100.00;97385.47;5006878;28;20052;-57
2022/06/24 00:25:45;;;;;;;27.55;7.00;;;;;;;21.52;100.00;97387.31;5004934;28;20045;-58
2022/06/24 00:28:12;;;;;;;34.28;7.40;;;;;;;21.33;100.00;97394.34;5005251;28;20021;-58
2022/06/24 00:30:54;;;;;;;39.63;8.18;;;;;;;21.27;100.00;97394.94;5003599;28;20069;-57
2022/06/24 00:33:22;;;;;;;39.70;8.57;;;;;;;21.06;100.00;97396.94;5007394;28;20591;-57
2022/06/24 00:35:53;;;;;;;29.90;7.55;;;;;;;20.99;100.00;97388.75;5009389;28;20120;-56
2022/06/24 00:38:34;;;;;;;36.17;7.93;;;;;;;21.08;100.00;97389.66;5010750;28;20084;-57
2022/06/24 00:41:07;;;;;;;29.70;6.72;;;;;;;21.40;100.00;97389.28;5008831;28;20519;-58
2022/06/24 00:43:37;;;;;;;32.22;8.02;;;;;;;20.85;100.00;97382.06;5010108;28;20044;-57
2022/06/24 00:46:15;;;;;;;34.60;7.63;;;;;;;20.48;100.00;97393.38;5010036;28;20557;-56
2022/06/24 00:48:46;;;;;;;47.58;8.95;;;;;;;20.74;100.00;97393.66;5008886;28;20117;-57
2022/06/24 00:51:12;;;;;;;34.17;7.68;;;;;;;20.90;100.00;97386.94;5008878;28;20395;-56
2022/06/24 00:53:44;;;;;;;36.22;8.43;;;;;;;20.93;100.00;97382.16;5008815;28;20768;-57
2022/06/24 00:56:12;;;;;;;43.92;9.10;;;;;;;20.90;100.00;97379.00;5010283;28;20046;-56
2022/06/24 00:58:37;;;;;;;41.10;8.27;;;;;;;20.86;100.00;97381.09;5010451;28;20687;-56
2022/06/24 01:01:03;;;;;;;32.80;8.05;;;;;;;20.50;100.00;97375.53;4989107;28;20046;-58
2022/06/24 01:03:40;;;;;;;37.95;8.52;;;;;;;20.85;100.00;97374.13;5008314;28;20582;-57
2022/06/24 01:06:06;;;;;;;35.53;8.20;;;;;;;20.79;100.00;97375.53;5008739;28;20091;-56
2022/06/24 01:08:31;;;;;;;38.42;9.13;;;;;;;20.74;100.00;97374.28;5006810;28;20025;-57
2022/06/24 01:10:57;;;;;;;31.95;7.72;;;;;;;21.08;100.00;97364.00;5008752;28;20119;-56
2022/06/24 01:13:23;;;;;;;31.45;8.40;;;;;;;20.83;100.00;97370.78;5008356;28;20029;-57
2022/06/24 01:15:48;;;;;;;31.00;8.02;;;;;;;20.71;100.00;97361.31;5008841;28;20036;-57
2022/06/24 01:18:14;;;;;;;29.73;7.95;;;;;;;20.50;100.00;97372.03;5009975;28;20095;-56
2022/06/24 01:20:39;;;;;;;32.05;8.35;;;;;;;20.31;100.00;97375.50;5006305;28;20152;-57
2022/06/24 01:23:04;;;;;;;34.25;7.97;;;;;;;20.35;100.00;97363.69;5007688;28;20091;-58
2022/06/24 01:25:31;;;;;;;29.20;8.02;;;;;;;20.63;100.00;97369.13;5009766;28;20038;-56
2022/06/24 01:27:57;;;;;;;29.48;8.05;;;;;;;20.18;100.00;97373.13;5010049;28;20037;-56
2022/06/24 01:30:23;;;;;;;33.78;8.45;;;;;;;20.41;100.00;97373.72;5009302;28;20032;-57
2022/06/24 01:32:48;;;;;;;34.42;8.95;;;;;;;20.47;100.00;97373.16;5007815;28;20029;-56
2022/06/24 01:35:14;;;;;;;32.53;8.70;;;;;;;20.56;100.00;97363.53;5009175;28;20025;-56
2022/06/24 01:37:39;;;;;;;35.47;8.90;;;;;;;20.42;100.00;97375.41;5008601;28;20916;-58
2022/06/24 01:40:05;;;;;;;44.50;10.43;;;;;;;20.51;100.00;97365.75;5008572;28;20026;-57
2022/06/24 01:42:31;;;;;;;31.80;8.60;;;;;;;20.60;100.00;97363.16;5007666;28;20052;-58
2022/06/24 01:44:56;;;;;;;29.50;8.10;;;;;;;20.76;100.00;97364.38;5007142;28;20028;-56
2022/06/24 01:47:22;;;;;;;30.60;8.27;;;;;;;20.76;100.00;97369.66;5008723;28;20041;-57
2022/06/24 01:49:47;;;;;;;27.08;7.55;;;;;;;20.77;100.00;97366.06;5008888;28;20038;-57
2022/06/24 01:52:12;;;;;;;31.10;8.25;;;;;;;21.04;100.00;97367.09;5006752;28;20092;-56
2022/06/24 01:54:38;;;;;;;31.58;8.40;;;;;;;20.79;100.00;97362.25;5010641;28;20574;-57
2022/06/24 01:57:03;;;;;;;34.22;8.25;;;;;;;20.83;100.00;97360.16;5007158;28;20068;-56
2022/06/24 01:59:29;;;;;;;29.13;8.75;;;;;;;20.51;100.00;97371.91;5006841;28;20030;-57
2022/06/24 02:01:54;;;;;;;32.75;9.48;;;;;;;20.43;100.00;97371.75;5007782;28;20041;-56
2022/06/24 02:04:20;;;;;;;30.27;8.15;;;;;;;20.59;100.00;97372.03;5007173;28;20567;-56
2022/06/24 02:06:45;;;;;;;29.63;7.82;;;;;;;20.62;100.00;97372.75;5008167;28;20045;-56
2022/06/24 02:09:10;;;;;;;29.88;8.30;;;;;;;19.86;100.00;97391.91;5008283;28;20025;-56
2022/06/24 02:14:21;;;;;;;48.92;10.05;;;;;;;19.83;100.00;97380.63;5006503;28;20036;-58
2022/06/24 02:16:47;;;;;;;33.38;8.13;;;;;;;20.02;100.00;97376.34;5006818;28;20038;-58
2022/06/24 02:19:12;;;;;;;29.35;7.63;;;;;;;19.83;100.00;97383.28;5007575;28;20123;-56
2022/06/24 02:21:38;;;;;;;25.42;7.50;;;;;;;19.93;100.00;97378.00;5005649;28;20065;-56
2022/06/24 02:24:04;;;;;;;31.80;8.52;;;;;;;20.01;100.00;97380.78;5008930;28;20069;-57
2022/06/24 02:26:30;;;;;;;35.45;8.70;;;;;;;19.82;100.00;97381.59;5008782;28;20045;-58
2022/06/24 02:28:56;;;;;;;34.45;8.95;;;;;;;19.52;100.00;97379.81;5007872;28;20076;-57
2022/06/24 02:31:22;;;;;;;29.77;8.35;;;;;;;19.70;100.00;97380.00;5006541;28;20085;-57
2022/06/24 02:33:47;;;;;;;33.63;7.65;;;;;;;20.08;100.00;97380.25;5009079;28;20030;-56
2022/06/24 02:36:13;;;;;;;33.20;8.60;;;;;;;19.90;100.00;97377.44;5007138;28;20273;-57
2022/06/24 02:38:39;;;;;;;40.90;9.65;;;;;;;19.75;100.00;97380.47;5007408;28;20819;-56
2022/06/24 02:41:04;;;;;;;29.95;8.52;;;;;;;19.88;100.00;97388.16;5006733;28;20125;-56
2022/06/24 02:43:34;;;;;;;34.40;9.20;;;;;;;20.02;100.00;97381.66;5006088;28;20034;-56
2022/06/24 02:46:02;;;;;;;35.55;9.07;;;;;;;20.11;100.00;97390.59;5006214;28;20058;-57
2022/06/24 02:48:28;;;;;;;39.13;9.45;;;;;;;19.90;100.00;97385.38;5005993;28;20092;-56
2022/06/24 02:50:56;;;;;;;29.23;8.38;;;;;;;20.16;100.00;97383.91;5006907;28;20058;-57
2022/06/24 02:53:22;;;;;;;30.95;8.57;;;;;;;20.00;100.00;97375.66;5008488;28;20447;-57
2022/06/24 02:55:50;;;;;;;26.92;7.47;;;;;;;19.97;100.00;97378.56;5007109;28;20762;-58
2022/06/24 02:58:15;;;;;;;34.13;8.55;;;;;;;20.17;100.00;97374.97;5008460;28;20026;-57
2022/06/24 03:00:41;;;;;;;33.85;8.10;;;;;;;20.20;100.00;97376.50;5004909;28;20048;-56
2022/06/24 03:03:08;;;;;;;36.22;8.02;;;;;;;20.02;100.00;97371.88;5006802;28;20040;-56
2022/06/24 03:05:34;;;;;;;32.47;7.93;;;;;;;20.38;100.00;97368.69;5005184;28;20087;-57
2022/06/24 03:07:59;;;;;;;30.77;7.65;;;;;;;20.53;100.00;97358.50;5005945;28;20033;-58
2022/06/24 03:10:24;;;;;;;30.10;7.78;;;;;;;20.51;100.00;97368.41;5006468;28;20029;-56
2022/06/24 03:12:50;;;;;;;32.22;7.65;;;;;;;20.46;100.00;97375.94;5006969;28;20040;-56
2022/06/24 03:15:16;;;;;;;29.30;7.97;;;;;;;20.54;100.00;97379.56;5005928;28;20148;-56
2022/06/24 03:17:41;;;;;;;32.72;7.93;;;;;;;20.78;100.00;97376.47;5007971;28;20698;-57
2022/06/24 03:20:07;;;;;;;41.92;8.43;;;;;;;20.78;100.00;97367.72;5006521;28;20083;-54
2022/06/24 03:22:33;;;;;;;31.23;7.45;;;;;;;20.84;100.00;97372.44;5009312;28;20029;-56
2022/06/24 03:24:59;;;;;;;30.92;7.45;;;;;;;21.08;100.00;97369.31;5006251;28;20025;-60
2022/06/24 03:27:24;;;;;;;33.35;7.22;;;;;;;21.02;100.00;97369.03;5003944;28;20034;-59
2022/06/24 03:29:49;;;;;;;31.33;7.72;;;;;;;20.32;100.00;97382.50;5004447;28;20045;-59
2022/06/24 03:32:15;;;;;;;33.90;7.25;;;;;;;20.73;100.00;97381.41;5006790;28;20038;-59
2022/06/24 03:34:40;;;;;;;28.00;6.75;;;;;;;20.91;100.00;97378.81;5006296;28;20140;-59
2022/06/24 03:37:06;;;;;;;27.95;7.07;;;;;;;20.96;100.00;97379.25;5006927;28;20487;-59
2022/06/24 03:39:31;;;;;;;35.75;7.60;;;;;;;21.01;100.00;97376.19;5005444;28;20442;-59
2022/06/24 03:41:57;;;;;;;36.35;7.55;;;;;;;20.97;100.00;97378.28;5006444;28;20517;-58
2022/06/24 03:44:22;;;;;;;28.83;7.38;;;;;;;21.09;100.00;97378.09;5006299;28;20028;-59
2022/06/24 03:46:47;;;;;;;28.35;6.78;;;;;;;21.03;100.00;97389.28;5006423;28;20578;-59
2022/06/24 03:49:13;;;;;;;28.98;6.60;;;;;;;21.22;100.00;97383.09;5005703;28;20030;-56
2022/06/24 03:51:39;;;;;;;29.73;6.13;;;;;;;21.18;100.00;97385.19;5003814;28;20681;-57
2022/06/24 03:54:05;;;;;;;31.23;6.72;;;;;;;21.20;100.00;97383.22;5006053;28;20687;-57
2022/06/24 03:56:31;;;;;;;25.30;5.50;;;;;;;21.06;100.00;97381.03;5001995;28;20057;-59
2022/06/24 03:58:57;;;;;;;32.38;6.68;;;;;;;21.13;100.00;97379.47;5006053;28;20026;-57
2022/06/24 04:01:22;;;;;;;27.92;6.63;;;;;;;21.10;100.00;97377.09;5005247;28;20137;-59
2022/06/24 04:03:48;;;;;;;28.52;6.18;;;;;;;21.15;100.00;97366.91;5004969;28;20056;-57
2022/06/24 04:06:13;;;;;;;26.58;5.75;;;;;;;21.41;100.00;97371.56;5003642;28;20076;-57
2022/06/24 04:08:38;;;;;;;34.30;6.63;;;;;;;21.20;100.00;97383.22;5004615;28;20037;-58
2022/06/24 04:11:11;;;;;;;28.52;5.38;;;;;;;21.21;100.00;97384.91;5005195;28;20099;-59
2022/06/24 04:13:37;;;;;;;27.60;5.60;;;;;;;21.10;100.00;97380.63;5005918;28;20500;-57
2022/06/24 04:16:02;;;;;;;28.35;5.38;;;;;;;20.85;100.00;97384.72;5005191;28;20594;-59
2022/06/24 04:18:28;;;;;;;27.90;5.15;;;;;;;20.82;100.00;97378.84;5003350;28;20033;-57
2022/06/24 04:20:53;;;;;;;30.63;5.47;;;;;;;20.59;100.00;97379.97;5006110;28;20026;-57
2022/06/24 04:23:18;;;;;;;33.50;5.47;;;;;;;20.49;100.00;97386.25;5005782;28;20563;-56
2022/06/24 04:25:46;;;;;;;28.27;5.18;;;;;;;20.23;100.00;97387.63;5003819;28;20757;-57
2022/06/24 04:28:12;;;;;;;33.70;5.85;;;;;;;20.10;100.00;97384.44;5006877;28;20026;-57
2022/06/24 04:30:37;;;;;;;26.77;5.47;;;;;;;20.18;100.00;97392.53;5002373;28;21092;-57
2022/06/24 04:33:03;;;;;;;33.75;6.57;;;;;;;20.13;100.00;97385.97;5007535;28;20737;-59
2022/06/24 04:35:28;;;;;;;29.42;6.38;;;;;;;20.06;100.00;97385.69;5005209;28;20144;-58
2022/06/24 04:37:53;;;;;;;26.38;6.68;;;;;;;20.09;100.00;97387.22;5005996;28;20149;-58
2022/06/24 04:40:19;;;;;;;39.70;7.63;;;;;;;20.02;100.00;97384.28;5004294;28;20080;-58
2022/06/24 04:42:46;;;;;;;33.70;8.15;;;;;;;20.08;100.00;97402.25;5004746;28;20026;-58
2022/06/24 04:45:11;;;;;;;35.35;7.53;;;;;;;20.04;100.00;97411.47;5006751;28;20021;-59
2022/06/24 04:47:37;;;;;;;35.58;8.00;;;;;;;20.21;100.00;97423.19;5005784;28;20024;-57
2022/06/24 04:50:04;;;;;;;40.92;8.27;;;;;;;20.17;100.00;97435.03;5004757;28;20148;-57
2022/06/24 04:52:30;;;;;;;32.22;7.15;;;;;;;20.11;100.00;97427.66;5002518;28;20037;-57
2022/06/24 04:54:56;;;;;;;27.77;7.03;;;;;;;19.96;100.00;97429.81;5004500;28;20018;-58
2022/06/24 04:57:21;;;;;;;36.33;7.80;;;;;;;19.94;100.00;97445.00;5006578;28;20049;-59
2022/06/24 04:59:46;;;;;;;37.22;7.65;;;;;;;20.21;100.00;97439.91;5005453;28;20640;-58
2022/06/24 05:02:12;;;;;;;33.83;7.28;;;;;;;20.02;100.00;97450.47;5003701;28;20038;-58
2022/06/24 05:04:37;;;;;;;31.10;7.50;;;;;;;20.13;100.00;97437.13;5005180;28;20540;-57
2022/06/24 05:07:04;;;;;;;31.20;6.65;;;;;;;20.26;100.00;97441.31;5002758;28;20124;-57
2022/06/24 05:09:29;;;;;;;36.72;7.45;;;;;;;20.26;100.00;97451.91;5003141;28;20032;-57
2022/06/24 05:11:55;;;;;;;30.65;7.13;;;;;;;20.35;100.00;97441.31;5005355;28;20113;-60
2022/06/24 05:14:20;;;;;;;28.27;6.43;;;;;;;20.33;100.00;97453.03;5004614;28;20120;-57
2022/06/24 05:16:45;;;;;;;32.47;7.78;;;;;;;20.23;100.00;97463.59;5002266;28;20046;-60
2022/06/24 05:19:11;;;;;;;33.38;7.40;;;;;;;20.01;100.00;97467.31;5005504;28;20040;-58
2022/06/24 05:21:37;;;;;;;33.80;7.63;;;;;;;20.01;100.00;97470.78;5008350;28;20049;-57
2022/06/24 05:24:02;;;;;;;36.90;7.50;;;;;;;20.31;100.00;97454.97;5006155;28;20029;-59
2022/06/24 05:26:28;;;;;;;34.35;6.97;;;;;;;20.73;100.00;97458.25;5008162;28;20646;-57
2022/06/24 05:28:53;;;;;;;34.33;7.20;;;;;;;20.76;100.00;97463.25;5008148;28;20407;-58
2022/06/24 05:31:19;;;;;;;43.55;8.60;;;;;;;20.41;100.00;97475.19;5004745;28;20129;-57
2022/06/24 05:33:44;;;;;;;35.83;7.72;;;;;;;20.41;100.00;97485.78;5006125;28;20133;-58
2022/06/24 05:36:10;;;;;;;42.50;8.48;;;;;;;20.31;100.00;97481.44;5004769;28;20459;-57
2022/06/24 05:38:35;;;;;;;40.90;8.15;;;;;;;20.74;100.00;97472.31;5007835;28;20024;-59
2022/06/24 05:41:02;;;;;;;36.30;7.78;;;;;;;21.09;100.00;97468.25;5005641;28;20034;-58
2022/06/24 05:43:28;;;;;;;32.83;7.63;;;;;;;20.95;100.00;97458.91;5007745;28;20104;-58
2022/06/24 05:45:53;;;;;;;39.20;7.60;;;;;;;21.12;100.00;97454.72;5006127;28;20087;-58
2022/06/24 05:48:19;;;;;;;36.15;7.78;;;;;;;21.35;100.00;97448.06;5008416;28;20680;-58
2022/06/24 05:50:44;;;;;;;35.47;7.70;;;;;;;21.95;100.00;97436.28;5006534;28;20041;-58
2022/06/24 05:55:58;;;;;;;31.52;7.32;;;;;;;21.20;100.00;97465.44;5005960;28;20407;-57
2022/06/24 05:58:25;;;;;;;31.40;7.60;;;;;;;21.21;100.00;97468.91;5005638;28;20033;-58
2022/06/24 06:00:51;;;;;;;38.35;7.95;;;;;;;21.28;100.00;97470.84;5006071;28;20041;-58
2022/06/24 06:03:17;;;;;;;33.33;7.15;;;;;;;21.65;100.00;97451.50;5019982;28;20087;-59
2022/06/24 06:05:42;;;;;;;37.35;7.20;;;;;;;21.42;100.00;97442.22;5008035;28;20092;-60
2022/06/24 06:08:07;;;;;;;36.85;7.72;;;;;;;21.99;100.00;97432.34;5007833;28;20080;-57
2022/06/24 06:10:35;;;;;;;32.25;6.72;;;;;;;22.22;100.00;97418.63;5004336;28;20144;-58
2022/06/24 06:13:01;;;;;;;27.50;6.20;;;;;;;23.25;100.00;97414.56;5007384;28;20091;-58
2022/06/24 06:15:29;;;;;;;33.28;6.65;;;;;;;22.56;100.00;97418.00;5008601;28;20537;-58
2022/06/24 06:17:54;;;;;;;31.10;6.30;;;;;;;24.11;100.00;97404.78;5008683;28;20021;-59
2022/06/24 06:20:20;;;;;;;33.47;6.85;;;;;;;25.24;100.00;97395.38;5006065;28;20611;-58
2022/06/24 06:22:45;;;;;;;30.70;6.22;;;;;;;26.86;100.00;97383.13;5008778;28;20919;-58
2022/06/24 06:25:11;;;;;;;27.65;5.68;;;;;;;27.62;100.00;97375.81;5008514;28;20111;-58
2022/06/24 06:27:37;;;;;;;28.27;5.78;;;;;;;27.41;100.00;97373.06;5007174;28;20076;-58
2022/06/24 06:30:04;;;;;;;32.55;5.97;;;;;;;26.59;100.00;97379.16;5005399;28;20904;-59
2022/06/24 06:32:29;;;;;;;21.05;4.50;;;;;;;25.92;100.00;97378.75;5005173;28;20042;-58
2022/06/24 06:34:55;;;;;;;15.75;3.83;;;;;;;27.76;100.00;97376.00;5007754;28;20036;-58
2022/06/24 06:37:20;;;;;;;23.35;3.95;;;;;;;28.12;100.00;97367.97;5009560;28;20137;-59
2022/06/24 06:39:45;;;;;;;19.05;3.88;;;;;;;27.54;100.00;97370.56;5005870;28;20076;-58
2022/06/24 06:42:11;;;;;;;19.67;3.90;;;;;;;29.24;100.00;97371.88;5008347;28;20068;-58
2022/06/24 06:44:37;;;;;;;20.13;3.78;;;;;;;29.58;100.00;97373.72;5009507;28;20037;-59
2022/06/24 06:47:02;;;;;;;19.85;3.88;;;;;;;27.49;100.00;97371.09;5005661;28;20157;-58
2022/06/24 06:49:28;;;;;;;15.82;3.65;;;;;;;27.85;100.00;97370.34;5006386;28;20114;-59
2022/06/24 06:51:53;;;;;;;20.70;4.07;;;;;;;26.24;100.00;97378.75;5007932;28;20141;-59
2022/06/24 06:54:18;;;;;;;20.45;3.97;;;;;;;25.74;100.00;97380.81;5006886;28;20040;-59
2022/06/24 06:56:44;;;;;;;25.60;4.32;;;;;;;25.35;100.00;97381.66;5008208;28;20053;-59
2022/06/24 06:59:10;;;;;;;22.58;4.30;;;;;;;25.20;100.00;97382.31;5006469;28;20340;-58
2022/06/24 07:01:35;;;;;;;20.90;4.53;;;;;;;25.39;100.00;97380.28;5005656;28;20504;-58
2022/06/24 07:04:01;;;;;;;24.55;4.65;;;;;;;24.67;100.00;97382.91;5009111;28;20111;-58
2022/06/24 07:06:26;;;;;;;24.10;4.70;;;;;;;24.68;100.00;97387.22;5006471;28;20659;-58
2022/06/24 07:08:52;;;;;;;20.85;4.53;;;;;;;23.95;100.00;97386.94;5008775;28;20387;-58
2022/06/24 07:11:17;;;;;;;23.95;4.72;;;;;;;24.58;100.00;97382.06;5005851;28;20599;-58
2022/06/24 07:13:42;;;;;;;24.17;4.65;;;;;;;24.69;100.00;97363.06;5006716;28;20029;-59
2022/06/24 07:16:09;;;;;;;18.88;3.88;;;;;;;24.73;100.00;97369.72;5007046;28;20456;-59
2022/06/24 07:18:35;;;;;;;26.88;4.80;;;;;;;25.54;100.00;97354.53;5007063;28;20511;-58
2022/06/24 07:21:00;;;;;;;24.83;4.90;;;;;;;25.70;100.00;97355.47;5005477;28;20037;-59
2022/06/24 07:23:26;;;;;;;21.60;4.72;;;;;;;24.20;100.00;97349.69;5007715;28;20026;-58
2022/06/24 07:25:56;;;;;;;21.90;4.53;;;;;;;24.71;100.00;97331.72;4991797;28;20060;-58
2022/06/24 07:28:21;;;;;;;21.77;4.70;;;;;;;24.65;100.00;97343.06;5005118;28;20492;-58
2022/06/24 07:30:46;;;;;;;21.85;4.47;;;;;;;24.35;100.00;97342.69;5003477;28;20040;-60
2022/06/24 07:33:12;;;;;;;24.20;5.35;;;;;;;23.39;100.00;97340.44;5007112;28;20691;-59
2022/06/24 07:35:37;;;;;;;26.25;5.50;;;;;;;23.08;100.00;97346.28;5006552;28;20094;-58
2022/06/24 07:38:03;;;;;;;27.60;5.05;;;;;;;23.22;100.00;97356.34;5008861;28;20065;-58
2022/06/24 07:40:28;;;;;;;20.63;4.70;;;;;;;23.24;100.00;97346.38;5005517;28;20087;-59
2022/06/24 07:42:54;;;;;;;25.40;5.20;;;;;;;22.90;100.00;97348.97;5006110;28;20025;-58
2022/06/24 07:45:19;;;;;;;22.35;4.70;;;;;;;23.28;100.00;97355.69;5004144;28;20732;-59
2022/06/24 07:47:45;;;;;;;20.27;4.32;;;;;;;22.86;100.00;97356.41;5007344;28;20057;-59
2022/06/24 07:50:10;;;;;;;31.55;6.03;;;;;;;22.97;100.00;97351.84;5005119;28;20081;-58
2022/06/24 07:52:36;;;;;;;24.88;5.20;;;;;;;23.00;100.00;97332.91;5003737;28;20031;-59
2022/06/24 07:57:46;;;;;;;26.55;5.07;;;;;;;23.26;100.00;97339.06;5007565;28;20041;-58
2022/06/24 08:00:11;;;;;;;37.78;6.40;;;;;;;22.97;100.00;97347.34;5003771;28;20041;-59
2022/06/24 08:02:37;;;;;;;27.98;5.60;;;;;;;23.37;100.00;97345.09;5005415;28;20025;-58
2022/06/24 08:05:02;;;;;;;22.95;4.93;;;;;;;23.45;100.00;97337.13;5006397;28;20637;-60
2022/06/24 08:07:28;;;;;;;24.92;5.03;;;;;;;23.39;100.00;97332.47;5006163;28;20172;-57
2022/06/24 08:09:53;;;;;;;23.50;5.32;;;;;;;23.56;100.00;97336.84;5006700;28;20033;-58
2022/06/24 08:12:18;;;;;;;23.63;4.78;;;;;;;23.46;100.00;97346.81;5005630;28;20480;-58
2022/06/24 08:14:44;;;;;;;28.20;5.72;;;;;;;22.94;100.00;97357.47;5006912;28;20108;-58
2022/06/24 08:17:09;;;;;;;20.10;4.65;;;;;;;24.12;100.00;97336.38;5006617;28;20044;-58
2022/06/24 08:19:35;;;;;;;25.60;5.15;;;;;;;24.32;100.00;97336.88;5005921;28;20061;-58
2022/06/24 08:22:00;;;;;;;27.23;5.40;;;;;;;25.16;100.00;97322.28;5003393;28;20053;-57
2022/06/24 08:24:26;;;;;;;15.27;3.85;;;;;;;25.75;100.00;97319.22;5004775;28;20117;-58
2022/06/24 08:26:51;;;;;;;25.70;4.80;;;;;;;24.84;100.00;97319.72;5004689;28;20037;-57
2022/06/24 08:29:17;;;;;;;24.63;4.80;;;;;;;29.11;100.00;97296.59;5006715;28;20099;-58
2022/06/24 08:31:43;;;;;;;21.60;4.35;;;;;;;30.40;100.00;97297.66;5003765;28;20906;-57
2022/06/24 08:34:09;;;;;;;18.98;4.20;;;;;;;29.24;100.00;97302.03;5006478;28;20068;-57
2022/06/24 08:36:34;;;;;;;18.75;4.00;;;;;;;29.72;100.00;97301.22;5006059;28;20041;-57
2022/06/24 08:39:00;;;;;;;21.27;4.05;;;;;;;27.42;100.00;97300.59;5008164;28;20034;-58
2022/06/24 08:41:26;;;;;;;22.45;4.43;;;;;;;28.95;100.00;97298.56;5003438;28;20095;-58
2022/06/24 08:43:53;;;;;;;19.05;4.25;;;;;;;27.50;100.00;97297.78;5004605;28;20507;-59
2022/06/24 08:46:19;;;;;;;20.05;4.05;;;;;;;27.10;100.00;97296.41;5005257;28;20041;-58
2022/06/24 08:48:44;;;;;;;25.58;4.70;;;;;;;26.19;100.00;97301.75;5003418;28;20098;-58
2022/06/24 08:51:13;;;;;;;22.38;4.18;;;;;;;26.34;100.00;97296.47;5005742;28;20038;-57
2022/06/24 08:53:39;;;;;;;21.17;4.40;;;;;;;26.19;100.00;97303.59;5004799;28;20045;-59
2022/06/24 08:56:06;;;;;;;20.33;4.10;;;;;;;26.42;100.00;97298.25;5009501;28;20125;-59
2022/06/24 08:58:32;;;;;;;27.63;4.57;;;;;;;25.78;100.00;97296.66;5008359;28;20029;-57
2022/06/24 09:00:58;;;;;;;25.95;4.78;;;;;;;25.55;100.00;97291.31;5008934;28;20465;-59
2022/06/24 09:03:23;;;;;;;19.67;4.40;;;;;;;25.24;100.00;97299.28;5009670;28;20041;-60
2022/06/24 09:05:49;;;;;;;21.83;4.20;;;;;;;25.00;100.00;97303.66;5009795;28;20044;-59
2022/06/24 09:08:16;;;;;;;23.75;4.63;;;;;;;25.32;100.00;97289.38;5010231;28;20037;-57
2022/06/24 09:10:44;;;;;;;22.42;4.47;;;;;;;25.50;100.00;97289.16;5008564;28;20037;-57
2022/06/24 09:13:21;;;;;;;25.00;4.47;;;;;;;25.02;100.00;97291.81;5010509;28;20036;-59
2022/06/24 09:15:53;;;;;;;22.67;4.15;;;;;;;25.13;100.00;97290.63;5011050;28;20065;-59
2022/06/24 09:18:23;;;;;;;28.95;4.75;;;;;;;24.58;100.00;97294.91;5008531;28;20507;-58
2022/06/24 09:20:50;;;;;;;22.83;4.20;;;;;;;25.16;100.00;97292.94;5007024;28;20182;-58
2022/06/24 09:23:15;;;;;;;22.67;4.32;;;;;;;25.25;100.00;97295.59;5008321;28;20083;-57
2022/06/24 09:25:47;;;;;;;21.85;3.83;;;;;;;24.72;100.00;97309.41;5005726;28;20034;-57
2022/06/24 09:28:42;;;;;;;24.58;4.35;;;;;;;25.52;100.00;97307.66;5008544;28;20021;-58
2022/06/24 09:31:08;;;;;;;21.48;4.10;;;;;;;25.26;100.00;97310.63;4992274;28;20161;-58
2022/06/24 09:33:38;;;;;;;20.10;4.03;;;;;;;25.31;100.00;97290.41;5010512;28;20578;-57
2022/06/24 09:36:07;;;;;;;26.50;4.45;;;;;;;24.61;100.00;97299.91;5008958;28;20041;-58
2022/06/24 09:38:33;;;;;;;29.83;5.05;;;;;;;24.44;100.00;97288.41;5007106;28;20512;-58
2022/06/24 09:41:04;;;;;;;25.20;4.30;;;;;;;24.51;100.00;97288.56;5008459;28;20034;-59
2022/06/24 09:43:31;;;;;;;27.70;4.68;;;;;;;24.94;100.00;97278.50;5008904;28;20103;-58
2022/06/24 09:45:57;;;;;;;22.85;4.30;;;;;;;24.96;100.00;97275.66;5007150;28;20037;-57
2022/06/24 09:48:34;;;;;;;20.17;3.63;;;;;;;24.97;100.00;97282.66;5008461;28;20121;-58
2022/06/24 09:51:02;;;;;;;18.02;3.63;;;;;;;25.02;100.00;97283.81;5004555;28;20038;-58
2022/06/24 09:53:35;;;;;;;22.33;4.20;;;;;;;25.92;100.00;97285.25;5008369;28;20740;-58
2022/06/24 09:56:01;;;;;;;22.05;4.03;;;;;;;26.75;100.00;97282.75;5011354;28;20034;-58
2022/06/24 09:58:27;;;;;;;23.58;4.53;;;;;;;26.93;100.00;97282.41;5008044;28;20025;-58
2022/06/24 10:00:53;;;;;;;18.00;3.97;;;;;;;26.22;100.00;97287.22;5008087;28;20372;-60
2022/06/24 10:03:18;;;;;;;18.95;3.78;;;;;;;25.81;100.00;97290.16;5008345;28;20065;-58
2022/06/24 10:05:46;;;;;;;30.45;5.15;;;;;;;26.91;100.00;97292.47;5005756;28;20042;-58
2022/06/24 10:08:15;;;;;;;23.08;4.80;;;;;;;26.94;100.00;97284.03;5008004;28;20030;-58
2022/06/24 10:10:58;;;;;;;25.75;4.90;;;;;;;29.30;100.00;97271.72;5005665;28;20049;-58
2022/06/24 10:13:29;;;;;;;18.88;3.70;;;;;;;29.77;100.00;97272.72;5010708;28;20060;-58
2022/06/24 10:16:08;;;;;;;19.77;4.03;;;;;;;29.69;100.00;97277.44;5008362;28;20144;-59
2022/06/24 10:18:37;;;;;;;22.92;4.47;;;;;;;30.08;95.30;97268.66;5007837;28;20876;-58
2022/06/24 10:21:05;;;;;;;19.98;4.20;;;;;;;27.58;100.00;97266.56;5007817;28;20037;-59
2022/06/24 10:23:40;;;;;;;18.77;3.90;;;;;;;29.76;100.00;97265.72;5008623;28;20565;-58
2022/06/24 10:26:14;;;;;;;17.20;3.72;;;;;;;28.25;100.00;97263.56;5008802;28;20531;-58
2022/06/24 10:29:03;;;;;;;21.25;4.70;;;;;;;30.66;93.26;97259.16;5007943;28;20116;-59
2022/06/24 10:31:56;;;;;;;15.95;3.95;;;;;;;30.71;85.80;97260.22;5007541;28;20132;-60
2022/06/24 10:34:30;;;;;;;19.55;4.05;;;;;;;31.15;79.14;97255.16;5009241;28;20040;-59
2022/06/24 10:37:13;;;;;;;16.40;3.92;;;;;;;31.86;74.20;97239.91;5005940;28;20034;-58
2022/06/24 10:39:50;;;;;;;15.55;3.60;;;;;;;31.25;76.35;97252.84;5008036;28;20045;-58
2022/06/24 10:42:20;;;;;;;16.15;3.55;;;;;;;29.21;95.35;97251.44;5008156;28;20049;-58
2022/06/24 10:45:00;;;;;;;20.52;4.28;;;;;;;29.07;100.00;97244.31;5016286;28;20692;-59
2022/06/24 10:47:28;;;;;;;15.18;3.53;;;;;;;28.58;99.87;97224.63;5005578;28;20710;-60
2022/06/24 10:49:54;;;;;;;21.58;4.40;;;;;;;28.21;100.00;97226.59;5005398;28;20498;-59
2022/06/24 10:52:45;;;;;;;20.60;4.15;;;;;;;28.55;100.00;97222.34;5007622;28;21033;-58
2022/06/24 10:55:29;;;;;;;19.08;4.03;;;;;;;28.69;100.00;97220.56;5006749;28;20057;-59
2022/06/24 10:57:57;;;;;;;16.15;3.65;;;;;;;30.06;98.00;97222.31;5007208;28;20025;-59
2022/06/24 11:00:26;;;;;;;21.27;4.13;;;;;;;28.16;100.00;97216.47;5005755;28;20025;-60
2022/06/24 11:02:57;;;;;;;17.92;3.90;;;;;;;29.24;100.00;97202.69;5008607;28;20046;-58
2022/06/24 11:05:24;;;;;;;17.02;4.07;;;;;;;29.30;98.87;97204.59;5007721;28;20034;-58
2022/06/24 11:07:49;;;;;;;16.17;3.75;;;;;;;30.05;90.62;97204.56;5006768;28;20029;-58
2022/06/24 11:10:19;;;;;;;22.65;4.45;;;;;;;31.49;72.65;97197.41;5007273;28;20400;-59
2022/06/24 11:12:52;;;;;;;20.48;4.30;;;;;;;32.70;65.06;97193.78;5007162;28;20439;-60
2022/06/24 11:15:18;;;;;;;17.75;3.80;;;;;;;31.75;70.24;97189.41;5006823;28;20036;-60
2022/06/24 11:17:44;;;;;;;15.07;3.40;;;;;;;30.69;72.25;97183.38;5005843;28;20025;-60
2022/06/24 11:20:13;;;;;;;24.98;4.95;;;;;;;30.81;69.49;97187.09;5006064;28;20073;-59
2022/06/24 11:22:43;;;;;;;18.48;3.95;;;;;;;32.14;62.01;97171.28;5006167;28;20021;-58
2022/06/24 11:25:10;;;;;;;16.63;3.78;;;;;;;31.72;65.36;97179.03;5005525;28;20080;-59